Coffeyville, Kansas
Current Conditions -  °F | °C
As of 8:52 AM on Friday 24 Oct 2014 (Local Time) from KCFV Reporting Station
Clear Clear  
Wind Chill: 58°   Ceiling: Unl
Heat Index: 58°   Visibility: 8mi
Dew Point: 56°   Wind: 8mph
Humidity: 93%   Direction: 190°S
Pressure: 30.1"   Gusts: NA
Location:  37.03°N, 95.62°W
Report Text: KCFV 241352Z AUTO 19007KT 8SM CLR 14/13 A3010 RMK AO2 SLP192 T01440133
Loading
Personal Weather Stations






























Interactive Weather Map New forecast layout! Learn more

10-Day Weather Forecast

Advertisements
Track Severe Weather on mobile